createdAt,value
2022-08-17T00:00:08.419Z,23.2
2022-08-17T00:01:08.490Z,23.1
2022-08-17T00:02:22.482Z,23.1
2022-08-17T00:03:08.499Z,23.1
2022-08-17T00:04:11.772Z,23.1
2022-08-17T00:05:08.428Z,23.2
2022-08-17T00:06:08.427Z,23.1
2022-08-17T00:07:08.434Z,23.2
2022-08-17T00:08:08.419Z,23.2
2022-08-17T00:09:08.424Z,23.3
2022-08-17T00:10:08.475Z,23.3
2022-08-17T00:11:08.462Z,23.3
2022-08-17T00:12:41.041Z,23.3
2022-08-17T00:13:08.424Z,23.2
2022-08-17T00:14:08.514Z,23.3
2022-08-17T00:15:10.745Z,23.3
2022-08-17T00:16:08.430Z,23.2
2022-08-17T00:17:08.480Z,23.3
2022-08-17T00:18:58.272Z,23.3
2022-08-17T00:19:08.839Z,23.3
2022-08-17T00:20:08.434Z,23.3
2022-08-17T00:21:10.250Z,23.3
2022-08-17T00:22:32.178Z,23.2
2022-08-17T00:23:08.425Z,23.3
2022-08-17T00:24:08.475Z,23.3
2022-08-17T00:25:08.487Z,23.3
2022-08-17T00:26:08.422Z,23.3
2022-08-17T00:27:08.422Z,23.4
2022-08-17T00:28:08.434Z,23.3
2022-08-17T00:29:08.452Z,23.4
2022-08-17T00:30:08.418Z,23.3
2022-08-17T00:31:08.488Z,23.3
2022-08-17T00:33:12.019Z,23.3
2022-08-17T00:33:23.147Z,23.3
2022-08-17T00:34:08.435Z,23.4
2022-08-17T00:35:08.536Z,23.4
2022-08-17T00:36:08.434Z,23.3
2022-08-17T00:37:08.514Z,23.3
2022-08-17T00:38:08.464Z,23.3
2022-08-17T00:39:08.470Z,23.3
2022-08-17T00:40:08.566Z,23.2
2022-08-17T00:41:08.435Z,23.1
2022-08-17T00:42:08.432Z,23
2022-08-17T00:43:08.429Z,23
2022-08-17T00:44:08.429Z,23.1
2022-08-17T00:45:08.499Z,23.1
2022-08-17T00:46:08.468Z,23.1
2022-08-17T00:47:08.428Z,23.2
2022-08-17T00:48:11.522Z,23.1
2022-08-17T00:49:08.428Z,23
2022-08-17T00:50:08.436Z,23
2022-08-17T00:51:08.430Z,22.9
2022-08-17T00:52:11.724Z,22.9
2022-08-17T00:53:08.479Z,23
2022-08-17T00:54:08.448Z,23
2022-08-17T00:55:08.435Z,23
2022-08-17T00:56:08.469Z,23
2022-08-17T00:57:08.440Z,23
2022-08-17T00:58:08.425Z,23
2022-08-17T00:59:08.490Z,23
2022-08-17T01:00:08.476Z,23
2022-08-17T01:01:08.536Z,23
2022-08-17T01:02:08.433Z,23
2022-08-17T01:03:08.565Z,23
2022-08-17T01:04:08.756Z,23
2022-08-17T01:05:08.727Z,23.1
2022-08-17T01:06:08.590Z,22.9
2022-08-17T01:07:08.490Z,22.9
2022-08-17T01:08:08.434Z,22.9
2022-08-17T01:09:08.436Z,22.9
2022-08-17T01:10:08.435Z,22.9
2022-08-17T01:11:08.436Z,22.8
2022-08-17T01:12:08.439Z,22.8
2022-08-17T01:13:08.501Z,22.6
2022-08-17T01:14:08.587Z,22.7
2022-08-17T01:15:08.438Z,22.6
2022-08-17T01:16:08.443Z,22.6
2022-08-17T01:17:08.480Z,22.5
2022-08-17T01:18:08.570Z,22.5
2022-08-17T01:19:08.457Z,22.5
2022-08-17T01:20:08.531Z,22.5
2022-08-17T01:21:08.490Z,22.5
2022-08-17T01:22:08.436Z,22.5
2022-08-17T01:23:08.443Z,22.4
2022-08-17T01:24:08.433Z,22.5
2022-08-17T01:25:08.451Z,22.5
2022-08-17T01:26:08.446Z,22.5
2022-08-17T01:27:10.297Z,22.5
2022-08-17T01:28:08.493Z,22.5
2022-08-17T01:29:08.443Z,22.5
2022-08-17T01:30:58.226Z,22.4
2022-08-17T01:31:08.458Z,22.5
2022-08-17T01:32:08.429Z,22.6
2022-08-17T01:33:08.435Z,22.6
2022-08-17T01:34:08.521Z,22.6
2022-08-17T01:35:08.512Z,22.6
2022-08-17T01:36:08.535Z,22.5
2022-08-17T01:37:08.454Z,22.5
2022-08-17T01:38:08.489Z,22.5
2022-08-17T01:39:08.446Z,22.5
2022-08-17T01:40:08.570Z,22.5
2022-08-17T01:41:08.572Z,22.5
2022-08-17T01:42:08.497Z,22.4
2022-08-17T01:43:08.436Z,22.4
2022-08-17T01:44:08.459Z,22.4
2022-08-17T01:45:08.494Z,22.4
2022-08-17T01:46:08.594Z,22.4
2022-08-17T01:47:08.460Z,22.2
2022-08-17T01:48:08.497Z,22.2
2022-08-17T01:49:08.596Z,22.2
2022-08-17T01:50:08.573Z,22.3
2022-08-17T01:51:08.448Z,22.3
2022-08-17T01:52:08.455Z,22.3
2022-08-17T01:53:08.490Z,22.2
2022-08-17T01:54:08.487Z,22.3
2022-08-17T01:55:08.499Z,22.3
2022-08-17T01:56:08.498Z,22.3
2022-08-17T01:57:08.451Z,22.3
2022-08-17T01:58:08.459Z,22.3
2022-08-17T01:59:08.557Z,22.3
2022-08-17T02:00:08.471Z,22.2
2022-08-17T02:01:08.569Z,22.2
2022-08-17T02:02:08.547Z,22.1
2022-08-17T02:03:08.495Z,22.1
2022-08-17T02:04:08.430Z,22.2
2022-08-17T02:05:08.584Z,22.2
2022-08-17T02:06:26.944Z,22.1
2022-08-17T02:07:08.445Z,22.2
2022-08-17T02:08:08.458Z,22.1
2022-08-17T02:09:08.507Z,22.2
2022-08-17T02:10:16.664Z,22.2
2022-08-17T02:11:11.414Z,22.2
2022-08-17T02:12:38.840Z,22.2
2022-08-17T02:13:08.464Z,22.2
2022-08-17T02:14:08.470Z,22.1
2022-08-17T02:15:08.474Z,22.2
2022-08-17T02:16:08.505Z,22.2
2022-08-17T02:17:08.538Z,22.1
2022-08-17T02:18:08.467Z,22.1
2022-08-17T02:19:08.463Z,22
2022-08-17T02:20:08.462Z,22
2022-08-17T02:21:08.466Z,22.1
2022-08-17T02:22:08.504Z,22
2022-08-17T02:23:08.506Z,22
2022-08-17T02:24:08.521Z,22.1
2022-08-17T02:25:08.477Z,22
2022-08-17T02:26:08.785Z,22
2022-08-17T02:27:08.451Z,21.9
2022-08-17T02:28:08.480Z,21.9
2022-08-17T02:29:08.478Z,21.9
2022-08-17T02:31:00.666Z,21.8
2022-08-17T02:31:08.522Z,21.8
2022-08-17T02:32:08.524Z,21.7
2022-08-17T02:33:09.359Z,21.7
2022-08-17T02:34:08.464Z,21.7
2022-08-17T02:35:08.477Z,21.7
2022-08-17T02:36:08.468Z,21.7
2022-08-17T02:37:08.555Z,21.8
2022-08-17T02:38:08.536Z,21.7
2022-08-17T02:39:08.466Z,21.7
2022-08-17T02:40:08.481Z,21.7
2022-08-17T02:41:08.488Z,21.7
2022-08-17T02:42:08.481Z,21.6
2022-08-17T02:43:08.455Z,21.5
2022-08-17T02:44:08.527Z,21.4
2022-08-17T02:45:08.530Z,21.4
2022-08-17T02:46:08.474Z,21.4
2022-08-17T02:47:08.490Z,21.5
2022-08-17T02:48:08.473Z,21.5
2022-08-17T02:49:08.487Z,21.6
2022-08-17T02:50:08.469Z,21.6
2022-08-17T02:51:08.533Z,21.6
2022-08-17T02:52:08.548Z,21.6
2022-08-17T02:53:08.454Z,21.6
2022-08-17T02:54:39.874Z,21.6
2022-08-17T02:55:08.482Z,21.6
2022-08-17T02:56:08.458Z,21.7
2022-08-17T02:57:08.477Z,21.6
2022-08-17T02:58:08.558Z,21.5
2022-08-17T02:59:08.527Z,21.5
2022-08-17T03:00:08.479Z,21.5
2022-08-17T03:01:08.479Z,21.4
2022-08-17T03:02:08.626Z,21.4
2022-08-17T03:03:08.462Z,21.4
2022-08-17T03:04:08.468Z,21.4
2022-08-17T03:05:08.516Z,21.3
2022-08-17T03:06:08.543Z,21.4
2022-08-17T03:07:08.487Z,21.4
2022-08-17T03:08:13.035Z,21.3
2022-08-17T03:09:08.471Z,21.3
2022-08-17T03:10:08.525Z,21.3
2022-08-17T03:11:08.479Z,21.2
2022-08-17T03:12:08.538Z,21.2
2022-08-17T03:13:08.519Z,21.1
2022-08-17T03:14:08.475Z,21.1
2022-08-17T03:15:08.487Z,21
2022-08-17T03:16:08.608Z,21.1
2022-08-17T03:17:08.467Z,21.1
2022-08-17T03:18:08.482Z,21.2
2022-08-17T03:19:08.523Z,21.2
2022-08-17T03:20:08.519Z,21.1
2022-08-17T03:21:08.550Z,21.1
2022-08-17T03:22:35.381Z,21.1
2022-08-17T03:23:08.482Z,21.2
2022-08-17T03:24:08.959Z,21.2
2022-08-17T03:25:10.742Z,21.2
2022-08-17T03:26:12.331Z,21.1
2022-08-17T03:27:08.646Z,21.3
2022-08-17T03:28:08.535Z,21.2
2022-08-17T03:29:08.507Z,21.2
2022-08-17T03:30:08.515Z,21.1
2022-08-17T03:31:08.492Z,21.1
2022-08-17T03:32:08.470Z,21
2022-08-17T03:33:08.532Z,21
2022-08-17T03:34:08.521Z,21
2022-08-17T03:35:08.476Z,20.9
2022-08-17T03:36:08.507Z,21
2022-08-17T03:37:08.526Z,21
2022-08-17T03:38:08.489Z,20.9
2022-08-17T03:39:08.476Z,20.8
2022-08-17T03:40:08.646Z,20.8
2022-08-17T03:41:08.534Z,20.8
2022-08-17T03:42:08.506Z,20.7
2022-08-17T03:43:08.474Z,20.7
2022-08-17T03:44:08.490Z,20.6
2022-08-17T03:45:08.469Z,20.6
2022-08-17T03:46:26.982Z,20.7
2022-08-17T03:47:08.527Z,20.7
2022-08-17T03:48:08.548Z,20.7
2022-08-17T03:49:08.528Z,20.7
2022-08-17T03:50:10.512Z,20.8
2022-08-17T03:51:12.782Z,20.8
2022-08-17T03:52:08.524Z,20.9
2022-08-17T03:53:08.500Z,20.9
2022-08-17T03:54:08.593Z,21
2022-08-17T03:55:08.522Z,20.9
2022-08-17T03:56:08.481Z,20.8
2022-08-17T03:57:08.514Z,20.8
2022-08-17T03:58:08.522Z,20.9
2022-08-17T03:59:08.476Z,21
2022-08-17T04:00:08.486Z,21
2022-08-17T04:01:08.560Z,20.9
2022-08-17T04:02:08.544Z,20.9
2022-08-17T04:03:09.007Z,21
2022-08-17T04:04:08.495Z,20.9
2022-08-17T04:05:08.494Z,21
2022-08-17T04:06:08.495Z,21
2022-08-17T04:07:08.503Z,21
2022-08-17T04:08:08.585Z,21
2022-08-17T04:09:08.532Z,21
2022-08-17T04:10:08.500Z,21.1
2022-08-17T04:11:08.483Z,21.1
2022-08-17T04:12:08.518Z,21.1
2022-08-17T04:13:08.545Z,21.2
2022-08-17T04:14:08.490Z,21.2
2022-08-17T04:15:08.545Z,21.1
2022-08-17T04:16:08.557Z,21.1
2022-08-17T04:17:08.551Z,21.1
2022-08-17T04:18:10.915Z,21.2
2022-08-17T04:19:08.476Z,21.1
2022-08-17T04:20:08.498Z,21.2
2022-08-17T04:21:08.561Z,21.2
2022-08-17T04:22:08.553Z,21.2
2022-08-17T04:23:08.575Z,21.3
2022-08-17T04:24:08.490Z,21.2
2022-08-17T04:25:08.494Z,21.2
2022-08-17T04:26:08.538Z,21.1
2022-08-17T04:27:08.484Z,21.1
2022-08-17T04:28:14.570Z,21.1
2022-08-17T04:29:08.561Z,21.2
2022-08-17T04:30:08.603Z,21.2
2022-08-17T04:31:08.485Z,21.2
2022-08-17T04:32:08.487Z,21.1
2022-08-17T04:33:08.578Z,21.1
2022-08-17T04:34:08.516Z,21.2
2022-08-17T04:35:08.535Z,21.3
2022-08-17T04:36:08.563Z,21.4
2022-08-17T04:37:08.590Z,21.4
2022-08-17T04:38:08.566Z,21.4
2022-08-17T04:39:08.548Z,21.3
2022-08-17T04:40:08.560Z,21.2
2022-08-17T04:41:08.495Z,21.3
2022-08-17T04:42:08.503Z,21.4
2022-08-17T04:43:08.567Z,21.4
2022-08-17T04:44:08.599Z,21.3
2022-08-17T04:45:08.520Z,21.3
2022-08-17T04:46:08.501Z,21.4
2022-08-17T04:47:08.534Z,21.4
2022-08-17T04:48:08.534Z,21.3
2022-08-17T04:49:08.606Z,21.3
2022-08-17T04:50:08.553Z,21.3
2022-08-17T04:51:08.576Z,21.4
2022-08-17T04:52:08.502Z,21.4
2022-08-17T04:53:08.586Z,21.5
2022-08-17T04:54:08.499Z,21.4
2022-08-17T04:55:08.494Z,21.5
2022-08-17T04:56:18.322Z,21.5
2022-08-17T04:57:08.555Z,21.5
2022-08-17T04:58:08.551Z,21.4
2022-08-17T04:59:08.498Z,21.5
2022-08-17T05:00:08.525Z,21.5
2022-08-17T05:01:08.599Z,21.6
2022-08-17T05:02:08.662Z,21.6
2022-08-17T05:03:08.492Z,21.6
2022-08-17T05:04:32.875Z,21.5
2022-08-17T05:05:08.630Z,21.5
2022-08-17T05:06:08.511Z,21.6
2022-08-17T05:07:08.530Z,21.6
2022-08-17T05:08:08.514Z,21.7
2022-08-17T05:09:08.519Z,21.7
2022-08-17T05:10:08.517Z,21.8
2022-08-17T05:11:08.556Z,21.8
2022-08-17T05:12:08.581Z,21.7
2022-08-17T05:13:08.514Z,21.7
2022-08-17T05:14:08.517Z,21.7
2022-08-17T05:15:08.513Z,21.8
2022-08-17T05:16:08.569Z,21.8
2022-08-17T05:17:11.234Z,21.8
2022-08-17T05:18:08.575Z,21.8
2022-08-17T05:19:08.542Z,21.8
2022-08-17T05:20:08.510Z,21.7
2022-08-17T05:21:08.608Z,21.8
2022-08-17T05:22:08.603Z,21.8
2022-08-17T05:23:08.616Z,21.9
2022-08-17T05:24:12.831Z,21.9
2022-08-17T05:25:08.564Z,22
2022-08-17T05:26:08.627Z,21.9
2022-08-17T05:27:08.517Z,21.9
2022-08-17T05:28:08.542Z,21.9
2022-08-17T05:29:08.552Z,21.9
2022-08-17T05:30:08.565Z,22
2022-08-17T05:31:08.558Z,22
2022-08-17T05:32:38.951Z,22
2022-08-17T05:33:08.566Z,22
2022-08-17T05:34:08.581Z,22.1
2022-08-17T05:35:08.583Z,22.2
2022-08-17T05:36:08.589Z,22.1
2022-08-17T05:37:08.519Z,22.2
2022-08-17T05:38:08.517Z,22.1
2022-08-17T05:39:08.637Z,22.1
2022-08-17T05:40:08.699Z,22.1
2022-08-17T05:41:08.619Z,22.1
2022-08-17T05:42:08.542Z,22.2
2022-08-17T05:43:08.561Z,22.2
2022-08-17T05:44:08.534Z,22.3
2022-08-17T05:45:08.548Z,22.3
2022-08-17T05:46:08.649Z,22.4
2022-08-17T05:47:09.934Z,22.3
2022-08-17T05:48:08.573Z,22.3
2022-08-17T05:49:08.592Z,22.4
2022-08-17T05:50:09.691Z,22.4
2022-08-17T05:51:08.521Z,22.4
2022-08-17T05:52:08.565Z,22.5
2022-08-17T05:53:08.614Z,22.5
2022-08-17T05:54:08.574Z,22.4
2022-08-17T05:55:08.714Z,22.5
2022-08-17T05:56:11.501Z,22.4
2022-08-17T05:57:08.509Z,22.4
2022-08-17T05:58:08.649Z,22.3
2022-08-17T05:59:08.574Z,22.4
2022-08-17T06:00:08.652Z,22.4
2022-08-17T06:01:08.734Z,22.5
2022-08-17T06:02:08.549Z,22.5
2022-08-17T06:03:08.584Z,22.6
2022-08-17T06:04:08.664Z,22.6
2022-08-17T06:05:08.597Z,22.6
2022-08-17T06:06:08.579Z,22.6
2022-08-17T06:07:08.909Z,22.7
2022-08-17T06:08:08.913Z,22.8
2022-08-17T06:09:09.025Z,22.9
2022-08-17T06:10:08.604Z,22.9
2022-08-17T06:11:08.614Z,22.8
2022-08-17T06:12:08.623Z,22.8
2022-08-17T06:13:08.623Z,22.7
2022-08-17T06:14:08.573Z,22.8
2022-08-17T06:15:08.661Z,22.9
2022-08-17T06:16:33.133Z,22.9
2022-08-17T06:17:08.587Z,22.9
2022-08-17T06:18:08.598Z,22.9
2022-08-17T06:19:08.497Z,23
2022-08-17T06:20:08.541Z,23
2022-08-17T06:21:08.671Z,23
2022-08-17T06:22:08.580Z,23.1
2022-08-17T06:23:08.663Z,23.1
2022-08-17T06:24:08.565Z,23.1
2022-08-17T06:25:10.298Z,23.1
2022-08-17T06:26:08.580Z,23.1
2022-08-17T06:27:08.612Z,23.2
2022-08-17T06:28:08.613Z,23.1
2022-08-17T06:29:08.619Z,23.1
2022-08-17T06:30:08.541Z,23.2
2022-08-17T06:31:08.528Z,23.2
2022-08-17T06:32:08.647Z,23.3
2022-08-17T06:33:08.526Z,23.2
2022-08-17T06:34:08.582Z,23.3
2022-08-17T06:35:08.578Z,23.4
2022-08-17T06:36:09.541Z,23.4
2022-08-17T06:37:08.623Z,23.5
2022-08-17T06:38:08.546Z,23.4
2022-08-17T06:39:08.585Z,23.5
2022-08-17T06:40:08.705Z,23.4
2022-08-17T06:41:08.577Z,23.6
2022-08-17T06:42:08.624Z,23.8
2022-08-17T06:43:09.106Z,23.8
2022-08-17T06:44:08.623Z,23.7
2022-08-17T06:45:08.551Z,23.7
2022-08-17T06:46:08.645Z,23.7
2022-08-17T06:47:08.654Z,23.7
2022-08-17T06:48:08.538Z,23.6
2022-08-17T06:49:08.605Z,23.5
2022-08-17T06:50:08.804Z,23.6
2022-08-17T06:51:08.631Z,23.5
2022-08-17T06:52:08.597Z,23.6
2022-08-17T06:53:08.572Z,23.6
2022-08-17T06:54:08.604Z,23.6
2022-08-17T06:55:08.679Z,23.7
2022-08-17T06:56:08.585Z,23.8
2022-08-17T06:57:08.932Z,24
2022-08-17T06:58:15.984Z,24.2
2022-08-17T06:59:08.615Z,24.3
2022-08-17T07:00:08.964Z,24.4
2022-08-17T07:01:08.731Z,24.1
2022-08-17T07:02:08.653Z,24.1
2022-08-17T07:03:09.322Z,24.1
2022-08-17T07:04:11.547Z,24.1
2022-08-17T07:05:08.551Z,24.2
2022-08-17T07:06:08.587Z,24.3
2022-08-17T07:07:08.602Z,24.3
2022-08-17T07:08:08.600Z,24.2
2022-08-17T07:09:08.532Z,24.3
2022-08-17T07:10:08.691Z,24.5
2022-08-17T07:11:08.725Z,24.4
2022-08-17T07:12:08.539Z,24.3
2022-08-17T07:13:08.701Z,24.3
2022-08-17T07:14:08.600Z,24.2
2022-08-17T07:15:08.592Z,24.1
2022-08-17T07:16:08.622Z,24
2022-08-17T07:17:08.620Z,24
2022-08-17T07:18:08.661Z,24.3
2022-08-17T07:19:10.881Z,24.2
2022-08-17T07:20:08.563Z,24
2022-08-17T07:21:08.564Z,24
2022-08-17T07:22:08.594Z,23.8
2022-08-17T07:23:08.577Z,23.6
2022-08-17T07:24:08.695Z,23.6
2022-08-17T07:25:08.617Z,23.6
2022-08-17T07:26:08.586Z,23.8
2022-08-17T07:27:08.609Z,23.8
2022-08-17T07:28:08.696Z,23.9
2022-08-17T07:29:08.711Z,23.9
2022-08-17T07:30:10.847Z,24
2022-08-17T07:31:08.619Z,24.1
2022-08-17T07:32:08.630Z,24.3
2022-08-17T07:33:08.634Z,24.3
2022-08-17T07:34:08.548Z,24
2022-08-17T07:35:10.764Z,23.7
2022-08-17T07:36:08.741Z,23.5
2022-08-17T07:37:08.542Z,23.5
2022-08-17T07:38:25.506Z,23.6
2022-08-17T07:39:08.667Z,23.8
2022-08-17T07:40:15.376Z,24
2022-08-17T07:41:08.582Z,24
2022-08-17T07:42:08.582Z,24.2
2022-08-17T07:43:08.634Z,24.2
2022-08-17T07:44:08.615Z,24.3
2022-08-17T07:45:08.615Z,24.2
2022-08-17T07:46:08.630Z,24.1
2022-08-17T07:47:08.606Z,24
2022-08-17T07:48:08.615Z,23.9
2022-08-17T07:49:08.621Z,23.8
2022-08-17T07:50:08.639Z,23.9
2022-08-17T07:51:08.631Z,24
2022-08-17T07:52:24.100Z,24.1
2022-08-17T07:53:08.659Z,24.1
2022-08-17T07:54:14.583Z,24.1
2022-08-17T07:55:08.565Z,24.2
2022-08-17T07:56:08.666Z,24.3
2022-08-17T07:57:08.716Z,24.5
2022-08-17T07:58:08.645Z,24.7
2022-08-17T07:59:08.617Z,25
2022-08-17T08:00:08.590Z,25
2022-08-17T08:01:08.616Z,25.1
2022-08-17T08:02:08.656Z,25.2
2022-08-17T08:03:08.614Z,25.4
2022-08-17T08:04:08.621Z,25.5
2022-08-17T08:05:08.978Z,25.5
2022-08-17T08:06:08.628Z,25.7
2022-08-17T08:07:08.656Z,25.7
2022-08-17T08:08:08.642Z,25.8
2022-08-17T08:09:08.645Z,25.9
2022-08-17T08:10:08.653Z,25.8
2022-08-17T08:11:08.657Z,25.9
2022-08-17T08:12:08.558Z,25.8
2022-08-17T08:13:08.641Z,25.7
2022-08-17T08:14:08.589Z,25.7
2022-08-17T08:15:08.573Z,25.7
2022-08-17T08:16:08.590Z,25.5
2022-08-17T08:17:09.388Z,25.6
2022-08-17T08:18:08.595Z,25.3
2022-08-17T08:19:08.605Z,25.1
2022-08-17T08:20:37.573Z,25
2022-08-17T08:21:08.605Z,25
2022-08-17T08:22:08.623Z,24.8
2022-08-17T08:23:08.625Z,24.6
2022-08-17T08:24:08.742Z,24.6
2022-08-17T08:25:08.659Z,24.6
2022-08-17T08:26:08.706Z,24.3
2022-08-17T08:27:08.602Z,24.2
2022-08-17T08:28:08.731Z,24
2022-08-17T08:29:08.823Z,24.1
2022-08-17T08:30:08.869Z,24.1
2022-08-17T08:31:08.720Z,24.1
2022-08-17T08:32:08.756Z,24
2022-08-17T08:33:08.848Z,24
2022-08-17T08:34:08.958Z,24.2
2022-08-17T08:35:08.625Z,24.1
2022-08-17T08:36:08.580Z,24.1
2022-08-17T08:37:17.560Z,24.2
2022-08-17T08:38:08.571Z,24.1
2022-08-17T08:39:08.653Z,24
2022-08-17T08:40:08.659Z,24
2022-08-17T08:41:08.652Z,23.9
2022-08-17T08:42:08.615Z,23.8
2022-08-17T08:43:08.573Z,23.7
2022-08-17T08:44:08.562Z,23.8
2022-08-17T08:45:08.672Z,23.7
2022-08-17T08:46:08.549Z,23.6
2022-08-17T08:47:08.584Z,23.6
2022-08-17T08:48:22.970Z,23.5
2022-08-17T08:49:14.572Z,23.4
2022-08-17T08:50:08.565Z,23.4
2022-08-17T08:51:08.643Z,23.4
2022-08-17T08:52:08.577Z,23.4
2022-08-17T08:53:08.636Z,23.2
2022-08-17T08:54:08.638Z,23.2
2022-08-17T08:55:08.653Z,23.2
2022-08-17T08:56:08.650Z,23.2
2022-08-17T08:57:29.132Z,23.2
2022-08-17T08:58:08.673Z,23.1
2022-08-17T08:59:08.668Z,23.1
2022-08-17T09:00:08.590Z,23
2022-08-17T09:01:08.782Z,23
2022-08-17T09:02:08.732Z,23.1
2022-08-17T09:03:08.604Z,23.1
2022-08-17T09:04:23.426Z,23.1
2022-08-17T09:05:15.690Z,23
2022-08-17T09:06:32.612Z,23
2022-08-17T09:07:08.822Z,23
2022-08-17T09:08:08.653Z,23
2022-08-17T09:09:08.643Z,22.9
2022-08-17T09:10:08.636Z,22.9
2022-08-17T09:11:08.635Z,22.9
2022-08-17T09:12:08.648Z,22.9
2022-08-17T09:13:10.300Z,22.9
2022-08-17T09:14:21.199Z,22.9
2022-08-17T09:15:12.822Z,22.8
2022-08-17T09:16:08.615Z,22.7
2022-08-17T09:17:08.624Z,22.7
2022-08-17T09:19:03.543Z,22.7
2022-08-17T09:19:08.596Z,22.7
2022-08-17T09:20:08.593Z,22.8
2022-08-17T09:21:08.596Z,22.8
2022-08-17T09:22:08.622Z,22.7
2022-08-17T09:23:08.717Z,22.7
2022-08-17T09:24:08.635Z,22.7
2022-08-17T09:25:08.581Z,22.7
2022-08-17T09:26:08.651Z,22.7
2022-08-17T09:27:08.662Z,22.8
2022-08-17T09:28:08.643Z,22.8
2022-08-17T09:29:08.603Z,22.8
2022-08-17T09:30:08.659Z,22.8
2022-08-17T09:31:08.660Z,22.8
2022-08-17T09:32:08.683Z,22.8
2022-08-17T09:33:08.673Z,22.8
2022-08-17T09:34:08.682Z,22.9
2022-08-17T09:35:08.703Z,22.9
2022-08-17T09:36:08.601Z,23
2022-08-17T09:37:08.698Z,23
2022-08-17T09:38:08.627Z,23
2022-08-17T09:39:08.628Z,23.1
2022-08-17T09:40:08.712Z,23.1
2022-08-17T09:41:08.624Z,23.2
2022-08-17T09:42:08.574Z,23.2
2022-08-17T09:43:08.578Z,23.2
2022-08-17T09:44:22.658Z,23.1
2022-08-17T09:45:08.610Z,23.2
2022-08-17T09:46:08.711Z,23.2
2022-08-17T09:47:08.615Z,23.3
2022-08-17T09:48:08.585Z,23.4
2022-08-17T09:49:08.681Z,23.5
2022-08-17T09:50:08.600Z,23.6
2022-08-17T09:51:08.689Z,23.6
2022-08-17T09:52:08.612Z,23.6
2022-08-17T09:53:08.596Z,23.6
2022-08-17T09:54:35.232Z,23.6
2022-08-17T09:55:08.584Z,23.5
2022-08-17T09:56:08.615Z,23.5
2022-08-17T09:57:28.638Z,23.7
2022-08-17T09:58:08.742Z,23.7
2022-08-17T09:59:08.651Z,23.7
2022-08-17T10:00:08.643Z,24.1
2022-08-17T10:01:08.697Z,24.3
2022-08-17T10:02:08.618Z,24.6
2022-08-17T10:03:08.672Z,24.6
2022-08-17T10:04:08.583Z,24.7
2022-08-17T10:05:08.681Z,24.7
2022-08-17T10:06:08.691Z,24.7
2022-08-17T10:07:08.580Z,24.7
2022-08-17T10:08:08.583Z,24.6
2022-08-17T10:09:08.644Z,24.6
2022-08-17T10:10:13.945Z,24.9
2022-08-17T10:11:08.720Z,25.2
2022-08-17T10:12:09.221Z,25.6
2022-08-17T10:13:09.609Z,25.5
2022-08-17T10:14:37.723Z,25.5
2022-08-17T10:15:09.596Z,25.4
2022-08-17T10:16:08.822Z,25.6
2022-08-17T10:17:08.629Z,26
2022-08-17T10:18:08.909Z,26.3
2022-08-17T10:19:08.684Z,26.4
2022-08-17T10:20:08.818Z,26.2
2022-08-17T10:21:08.592Z,26.1
2022-08-17T10:22:32.519Z,26.2
2022-08-17T10:23:09.021Z,26
2022-08-17T10:24:09.037Z,25.8
2022-08-17T10:25:22.867Z,26
2022-08-17T10:26:08.654Z,25.7
2022-08-17T10:27:08.721Z,25.8
2022-08-17T10:28:12.961Z,25.9
2022-08-17T10:29:08.622Z,25.7
2022-08-17T10:30:08.774Z,25.7
2022-08-17T10:32:08.874Z,25.4
2022-08-17T10:33:08.628Z,25.3
2022-08-17T10:34:08.645Z,25.6
2022-08-17T10:35:08.589Z,25.5
2022-08-17T10:36:10.771Z,25.5
2022-08-17T10:37:08.679Z,25.4
2022-08-17T10:38:08.682Z,25.4
2022-08-17T10:39:08.611Z,25.4
2022-08-17T10:40:08.786Z,25.4
2022-08-17T10:41:08.762Z,25.6
2022-08-17T10:42:08.621Z,25.9
2022-08-17T10:43:08.614Z,26.1
2022-08-17T10:44:37.298Z,26.3
2022-08-17T10:45:09.141Z,26.6
2022-08-17T10:46:10.520Z,27
2022-08-17T10:47:09.191Z,27.2
2022-08-17T10:48:09.018Z,27.2
2022-08-17T10:49:08.663Z,27.5
2022-08-17T10:50:08.663Z,27.6
2022-08-17T10:51:08.659Z,27.6
2022-08-17T10:52:08.649Z,27.4
2022-08-17T10:53:08.692Z,27.5
2022-08-17T10:54:08.666Z,27.4
2022-08-17T10:55:08.664Z,27.1
2022-08-17T10:56:08.690Z,27.1
2022-08-17T10:57:08.799Z,27.3
2022-08-17T10:58:08.939Z,27.2
2022-08-17T10:59:08.874Z,27
2022-08-17T11:00:08.610Z,26.7
2022-08-17T11:01:08.739Z,27
2022-08-17T11:02:08.748Z,27
2022-08-17T11:03:08.683Z,27.2
2022-08-17T11:04:08.643Z,27.3
2022-08-17T11:05:08.592Z,27.3
2022-08-17T11:06:08.664Z,27.5
2022-08-17T11:07:08.673Z,27.7
2022-08-17T11:08:08.681Z,27.7
2022-08-17T11:09:08.689Z,27.5
2022-08-17T11:10:08.688Z,27.3
2022-08-17T11:11:08.597Z,27.2
2022-08-17T11:12:08.599Z,27.1
2022-08-17T11:13:08.616Z,26.6
2022-08-17T11:14:08.626Z,26.4
2022-08-17T11:15:08.643Z,26.3
2022-08-17T11:16:08.733Z,26.1
2022-08-17T11:17:08.593Z,26
2022-08-17T11:18:08.638Z,25.9
2022-08-17T11:19:08.753Z,25.7
2022-08-17T11:20:08.644Z,25.6
2022-08-17T11:21:08.648Z,25.8
2022-08-17T11:22:08.655Z,25.8
2022-08-17T11:23:08.668Z,25.9
2022-08-17T11:24:08.598Z,25.9
2022-08-17T11:25:08.685Z,25.8
2022-08-17T11:26:08.699Z,25.9
2022-08-17T11:27:08.604Z,26
2022-08-17T11:28:08.705Z,26.3
2022-08-17T11:29:08.717Z,26.5
2022-08-17T11:30:08.715Z,26.4
2022-08-17T11:31:08.615Z,26.4
2022-08-17T11:32:11.136Z,26.2
2022-08-17T11:33:08.650Z,26
2022-08-17T11:34:08.626Z,26
2022-08-17T11:35:08.644Z,26
2022-08-17T11:36:08.651Z,26.3
2022-08-17T11:37:08.751Z,26.6
2022-08-17T11:38:15.912Z,27
2022-08-17T11:39:08.661Z,27
2022-08-17T11:40:08.767Z,26.6
2022-08-17T11:41:08.679Z,26.7
2022-08-17T11:42:08.615Z,26.7
2022-08-17T11:43:08.690Z,26.6
2022-08-17T11:44:08.685Z,26.5
2022-08-17T11:45:08.709Z,26.7
2022-08-17T11:46:08.614Z,27
2022-08-17T11:47:08.710Z,27.1
2022-08-17T11:48:27.108Z,26.5
2022-08-17T11:49:08.624Z,26.6
2022-08-17T11:50:08.748Z,26.8
2022-08-17T11:51:08.647Z,26.8
2022-08-17T11:52:08.746Z,26.5
2022-08-17T11:53:08.651Z,26.3
2022-08-17T11:54:31.660Z,26.3
2022-08-17T11:55:33.913Z,26.7
2022-08-17T11:56:08.683Z,27.1
2022-08-17T11:57:08.673Z,27.8
2022-08-17T11:58:08.682Z,28.4
2022-08-17T11:59:08.687Z,28.6
2022-08-17T12:00:08.796Z,28.7
2022-08-17T12:01:08.710Z,28.4
2022-08-17T12:02:08.710Z,28.2
2022-08-17T12:03:08.679Z,28.1
2022-08-17T12:04:08.719Z,28.1
2022-08-17T12:05:09.644Z,27.9
2022-08-17T12:06:08.636Z,28.1
2022-08-17T12:07:08.652Z,28.3
2022-08-17T12:08:08.745Z,28.5
2022-08-17T12:09:08.654Z,29
2022-08-17T12:10:08.722Z,29.5
2022-08-17T12:11:08.776Z,29.8
2022-08-17T12:12:12.862Z,29.6
2022-08-17T12:13:08.688Z,29.4
2022-08-17T12:14:09.484Z,29.3
2022-08-17T12:15:11.342Z,29.3
2022-08-17T12:16:08.698Z,29.5
2022-08-17T12:17:08.712Z,29.9
2022-08-17T12:18:08.661Z,29.9
2022-08-17T12:19:08.692Z,30
2022-08-17T12:20:08.627Z,30.1
2022-08-17T12:21:08.725Z,30.1
2022-08-17T12:22:08.644Z,30.6
2022-08-17T12:23:08.632Z,30.4
2022-08-17T12:24:08.636Z,29.2
2022-08-17T12:25:08.761Z,29.8
2022-08-17T12:26:08.761Z,30.5
2022-08-17T12:27:08.663Z,31
2022-08-17T12:28:08.851Z,30.6
2022-08-17T12:29:09.303Z,30.6
2022-08-17T12:30:08.653Z,30.9
2022-08-17T12:31:08.626Z,31
2022-08-17T12:32:08.769Z,31.2
2022-08-17T12:33:08.652Z,31.8
2022-08-17T12:34:08.716Z,31.8
2022-08-17T12:35:08.718Z,31.4
2022-08-17T12:36:08.727Z,31.6
2022-08-17T12:37:08.620Z,31.6
2022-08-17T12:38:32.129Z,31.5
2022-08-17T12:39:13.878Z,31.6
2022-08-17T12:40:08.714Z,31.7
2022-08-17T12:41:08.663Z,31.5
2022-08-17T12:42:08.686Z,31.8
2022-08-17T12:43:08.619Z,32.1
2022-08-17T12:44:08.620Z,32.9
2022-08-17T12:45:08.685Z,32.8
2022-08-17T12:46:12.948Z,33.2
2022-08-17T12:47:08.668Z,33.3
2022-08-17T12:48:08.639Z,33.3
2022-08-17T12:49:08.645Z,33.3
2022-08-17T12:50:28.734Z,33.3
2022-08-17T12:51:08.625Z,33.1
2022-08-17T12:52:08.650Z,33
2022-08-17T12:53:08.747Z,34
2022-08-17T12:54:08.700Z,34.7
2022-08-17T12:55:08.624Z,34.5
2022-08-17T12:56:08.653Z,34.3
2022-08-17T12:57:08.652Z,34.4
2022-08-17T12:58:13.635Z,34.5
2022-08-17T12:59:08.668Z,33.8
2022-08-17T13:00:08.681Z,34
2022-08-17T13:01:08.683Z,34.2
2022-08-17T13:02:08.827Z,34.2
2022-08-17T13:03:08.693Z,34.1
2022-08-17T13:04:08.709Z,33.4
2022-08-17T13:05:08.714Z,33.6
2022-08-17T13:06:08.712Z,34
2022-08-17T13:07:08.663Z,34.2
2022-08-17T13:08:08.670Z,33.5
2022-08-17T13:09:08.640Z,32.7
2022-08-17T13:10:08.643Z,32.7
2022-08-17T13:11:08.674Z,32.9
2022-08-17T13:12:08.716Z,32.3
2022-08-17T13:13:08.655Z,32.1
2022-08-17T13:14:08.677Z,32
2022-08-17T13:15:08.673Z,31.4
2022-08-17T13:16:08.682Z,31.2
2022-08-17T13:17:13.359Z,31.4
2022-08-17T13:18:08.700Z,31.2
2022-08-17T13:19:08.640Z,31.2
2022-08-17T13:20:08.640Z,31.4
2022-08-17T13:21:08.678Z,31.7
2022-08-17T13:22:08.737Z,31.4
2022-08-17T13:23:12.039Z,31.9
2022-08-17T13:24:08.724Z,31.9
2022-08-17T13:25:08.627Z,31.4
2022-08-17T13:26:08.649Z,31